Fillmore, CA (93015)

5:40 PM PST on February 11, 2016 (GMT -0800)
3 km west of Fillmore in agricultural area | | Change Station
CLOSE
Current Station
Personal Weather Station
Location: Fillmore, CA
Elevation: 495 ft
Nearby Weather Stations

Elev 495 ft 34.41 °N, 118.95 °W | Updated 3 minutes ago

Clear
Clear
73.3 °F
Feels Like 77 °F
N
0.0
Wind Variable Wind from WSW
Gusts 0.0 mph

Today
High -- | Low -- °F
--% Chance of Precip.
Yesterday
High -- | Low -- °F
Precip. -- in
Pressure 30.11 in
Visibility 10.0 miles
Clouds Clear
Heat Index 77 °F
Dew Point 45 °F
Humidity 36%
Rainfall 0.00 in
Snow Depth Not available.
6:45 AM 5:35 PM
Waxing Crescent, 16% visible
METAR KCMA 120055Z 26005KT 10SM CLR 22/06 A3008 RMK AO2 SLP194 T02170061
Pressure 30.11 in
Visibility 10.0 miles
Clouds Clear
Heat Index 77 °F
Dew Point 45 °F
Humidity 36%
Rainfall 0.00 in
Snow Depth Not available.
6:45 AM 5:35 PM
Waxing Crescent, 16% visible
METAR KCMA 120055Z 26005KT 10SM CLR 22/06 A3008 RMK AO2 SLP194 T02170061

10-Day Weather Forecast

Almanac

Astronomy

Feb. 11, 2016 Rise Set
Actual Time
Civil Twilight
Nautical Twilight
Astronomical Twilight
Moon
Length of Visible Light
Length of Day
Tomorrow will be .
, % of the Moon is Illuminated

Today's Extremes

State Highs State Lows

Community

WunderPhotos

Upload Photos

1,892,207 photos uploaded!

WunderBlog® & News

Nearby

Air Quality

  Air Quality AQ Index Pollutant
Not available.

Snow Depth

Station Depth Elevation

Earthquake Activity

City Distance Mag. Time & Date
Minimum magnitude displayed is 2.5.

Coastal Water Temperatures

Place Temperature

Stations

Nearby Weather Stations

Station Location Temp. Windchill Dew Point Humidity Wind Precip. Elev Updated Type
                   

Watches & Warnings

There are currently no watches in effect.